• Join FlightAware (Why Join?)
  • Login
  • US Flag 
05:48PM EDT


 

Airport Tracker/Info


-or-


 

Live Flight TrackerFlight Track Log ✈ UAL594 ✈ 18-Apr-2013 ✈ KIAD - KORD

Flight Track Log - Related Links

Times and Time Zones

All times are in EDT time to prevent confusion due to time zone crossing. See the UAL594 flight status page for this flight to view local times or setup timezone preferences in your user account.

Time Position Orientation Groundspeed Altitude Reporting Facility
EDT Latitude Longitude Course Direction KTS MPH feet Rate Location/Type
12:04PM 38.9333 -77.6000 288° West 238 274 4,000  Level Potomac TRACON
12:05PM 38.9144 -77.6644 249° West 247 284 6,000 3,060 Climbing Washington Center
12:06PM 38.8847 -77.6973 237° Southwest  Level FlightAware Approximate
12:06PM 38.8775 -77.7461 240° Southwest 257 296 9,200  Level Washington Center
12:07PM 38.8500 -77.7685 270° West  Level FlightAware Approximate
12:07PM 38.8344 -77.8169 232° Southwest 276 318 10,900  Level Washington Center
12:08PM 38.8113 -77.8376 228° Southwest  Level FlightAware Approximate
12:08PM 38.7889 -77.9167 240° Southwest 304 350 12,600  Level Washington Center
12:09PM 38.7690 -77.9023 322° Northwest  Level FlightAware Approximate
12:09PM 38.8133 -78.0428 284° West 313 360 14,900  Level Washington Center
12:10PM 38.7988 -77.9785 288° West  Level FlightAware Approximate
12:10PM 38.8461 -78.1717 288° West 342 394 16,900  Level Washington Center
12:11PM 38.8536 -78.3053 274° West 369 425 18,700 1,800 Climbing Washington Center
12:12PM 38.8525 -78.4467 269° West 389 448 20,500 1,380 Climbing Washington Center
12:13PM 38.8511 -78.5906 269° West 401 461 21,500 1,080 Climbing Washington Center
12:14PM 38.8492 -78.7478 269° West 423 487 22,700 1,200 Climbing Washington Center
12:15PM 38.8469 -78.9047 269° West 436 502 23,900 1,080 Climbing Washington Center
12:16PM 38.8444 -79.0672 269° West 448 516 24,900 1,020 Climbing Washington Center
12:17PM 38.8375 -79.2297 267° West 455 524 26,000 1,080 Climbing Washington Center
12:18PM 38.8075 -79.3906 257° West 460 529 27,100 1,440 Climbing Washington Center
12:19PM 38.7767 -79.5700 258° West 465 535 28,900 1,260 Climbing Washington Center
12:20PM 38.7511 -79.7125 257° West 470 541 29,700 960 Climbing Washington Center
12:21PM 38.7228 -79.8681 257° West 464 534 30,900 1,200 Climbing Washington Center
12:22PM 38.6942 -80.0233 257° West 459 528 32,200 1,200 Climbing Washington Center
12:23PM 38.6597 -80.1867 255° West 442 509 33,400 840 Climbing Indianapolis Center
12:24PM 38.6294 -80.3394 256° West 442 509 34,000 240 Climbing Indianapolis Center
12:25PM 38.6006 -80.4925 256° West 441 507 34,000  Level Indianapolis Center
12:26PM 38.5728 -80.6436 257° West 437 503 34,000  Level Indianapolis Center
12:27PM 38.5433 -80.7958 256° West 441 507 34,000  Level Indianapolis Center
12:28PM 38.5142 -80.9497 256° West 444 511 34,000  Level Indianapolis Center
12:29PM 38.4831 -81.1044 256° West 447 514 34,000  Level Indianapolis Center
12:30PM 38.4522 -81.2589 256° West 446 513 34,000  Level Indianapolis Center
12:31PM 38.4211 -81.4164 256° West 451 519 34,000  Level Indianapolis Center
12:32PM 38.3892 -81.5758 256° West 458 527 34,000  Level Indianapolis Center
12:33PM 38.3575 -81.7342 256° West 457 526 34,000  Level Indianapolis Center
12:34PM 38.3092 -81.9178 252° West 455 524 34,000  Level Indianapolis Center
12:35PM 38.2661 -82.0667 250° West 449 517 34,000  Level Indianapolis Center
12:36PM 38.2244 -82.2164 251° West 448 516 34,000  Level Indianapolis Center
12:37PM 38.1817 -82.3661 250° West 451 519 34,000  Level Indianapolis Center
12:39PM 38.1364 -82.5250 250° West 448 516 34,000  Level Indianapolis Center
12:40PM 38.0939 -82.6733 250° West 447 514 34,000  Level Indianapolis Center
12:41PM 38.0511 -82.8183 250° West 442 509 34,000  Level Indianapolis Center
12:42PM 38.0089 -82.9692 250° West 450 518 34,000  Level Indianapolis Center
12:43PM 37.9658 -83.1147 249° West 445 512 34,000  Level Indianapolis Center
12:44PM 37.9228 -83.2603 249° West 443 510 34,000  Level Indianapolis Center
12:45PM 37.8800 -83.4072 250° West 443 510 34,000  Level Indianapolis Center
12:46PM 37.8294 -83.5775 249° West 444 511 34,000  Level Indianapolis Center
12:47PM 37.8025 -83.7267 257° West 439 505 34,000 -120 Level Indianapolis Center
12:48PM 37.8533 -83.8614 296° West 433 498 33,800 -1,800 Descending Indianapolis Center
12:49PM 37.9639 -83.9258 335° Northwest 449 517 30,400 -2,400 Descending Indianapolis Center
12:50PM 38.0872 -83.9756 342° North 461 531 29,000 -900 Descending Indianapolis Center
12:51PM 38.2106 -84.0244 343° North 461 531 28,600 -1,500 Descending Indianapolis Center
12:52PM 38.3333 -84.0744 342° North 462 532 26,000 -1,320 Descending Indianapolis Center
12:53PM 38.4581 -84.1239 343° North 467 537 26,000  Level Indianapolis Center
12:54PM 38.6017 -84.1814 343° North 465 535 26,000  Level Indianapolis Center
12:55PM 38.7253 -84.2328 342° North 484 557 26,000 -60 Level Indianapolis Center
12:56PM 38.8578 -84.2872 342° North 491 565 25,900 -60 Descending Indianapolis Center
12:57PM 38.9894 -84.3411 342° North 492 566 25,900  Level Indianapolis Center
12:58PM 39.1211 -84.3950 342° North 491 565 26,000  Climbing Indianapolis Center
12:59PM 39.2550 -84.4522 342° North 497 572 26,000  Level Indianapolis Center
01:00PM 39.3858 -84.5069 342° North 490 564 26,000 -60 Level Indianapolis Center
01:01PM 39.5169 -84.5619 342° North 490 564 25,900  Descending Indianapolis Center
01:02PM 39.6486 -84.6169 342° North 491 565 26,000  Climbing Indianapolis Center
01:03PM 39.7800 -84.6719 342° North 489 563 25,900 -60 Descending Indianapolis Center
01:04PM 39.9128 -84.7272 342° North 494 568 25,900  Level Indianapolis Center
01:05PM 40.0653 -84.7922 342° North 490 564 25,900  Level Indianapolis Center
01:06PM 40.1975 -84.8483 342° North 493 567 25,900  Level Indianapolis Center
01:07PM 40.3269 -84.9044 342° North 486 559 25,900 -540 Level Indianapolis Center
01:08PM 40.4578 -84.9603 342° North 487 560 24,800 -1,020 Descending Indianapolis Center
01:09PM 40.5836 -85.0153 342° North 476 548 23,900 -540 Descending Indianapolis Center
01:10PM 40.6553 -85.0436 343° North 481 554 24,000 -1,080 Climbing Chicago Center
01:11PM 40.7806 -85.0972 342° North 477 549 22,200 -1,020 Descending Chicago Center
01:12PM 40.9075 -85.1553 341° North 479 551 22,000 -120 Descending Chicago Center
01:13PM 41.0406 -85.1814 352° North 486 559 22,000  Level Chicago Center
01:14PM 41.1717 -85.2011 354° North 477 549 22,000  Level Chicago Center
01:15PM 41.3025 -85.2197 354° North 476 548 22,000  Level Chicago Center
01:16PM 41.4603 -85.2272 358° North 493 567 22,000  Level Chicago Center
01:17PM 41.5461 -85.3247 320° Northwest 419 482 22,000  Level Chicago Center
01:18PM 41.5456 -85.4672 270° West 377 434 22,000  Level Chicago Center
01:19PM 41.4936 -85.5833 239° Southwest 360 414 22,000  Level Chicago Center
01:20PM 41.4408 -85.6975 238° Southwest 361 415 22,000  Level Chicago Center
01:21PM 41.3892 -85.8072 238° Southwest 351 404 22,000  Level Chicago Center
01:22PM 41.3378 -85.9192 239° Southwest 354 407 22,000  Level Chicago Center
01:23PM 41.2917 -86.0164 238° Southwest 316 364 22,000  Level Chicago Center
01:24PM 41.2417 -86.1089 234° Southwest 310 357 22,000  Level Chicago Center
01:25PM 41.1414 -86.1253 187° South 319 367 22,000  Level Chicago Center
01:26PM 41.0792 -86.0297 131° Southeast 361 415 22,000  Level Chicago Center
01:27PM 41.0758 -85.8792 92° East 405 466 22,000  Level Chicago Center
01:28PM 41.0986 -85.7278 79° East 430 495 22,000  Level Chicago Center
01:29PM 41.2039 -85.6672 23° Northeast 426 490 22,000  Level Chicago Center
01:30PM 41.2875 -85.7467 324° Northwest 375 432 22,000  Level Chicago Center
01:31PM 41.3206 -85.8714 289° West 358 412 22,000  Level Chicago Center
01:32PM 41.3514 -86.0019 288° West 367 422 22,000 -300 Level Chicago Center
01:33PM 41.3894 -86.1578 288° West 367 422 21,500 -660 Descending Chicago Center
01:34PM 41.4197 -86.2869 287° West 366 421 20,700 -1,140 Descending Chicago Center
01:35PM 41.4714 -86.4075 300° West 383 441 19,200 -2,460 Descending Chicago Center
01:36PM 41.5264 -86.5217 303° West 369 425 15,700 -3,120 Descending Chicago Center
01:37PM 41.5778 -86.6300 302° West 352 405 12,900 -1,860 Descending Chicago Center
01:39PM 41.6292 -86.7375 303° West 339 390 12,000 -480 Descending Chicago Center
01:40PM 41.7086 -86.8028 328° Northwest 366 421 12,000 -300 Level Chicago Center
01:41PM 41.8064 -86.8150 355° North 359 413 11,400 -540 Descending Chicago Center
01:42PM 41.8944 -86.8742 333° Northwest 312 359 11,000 -900 Descending Chicago Center
01:43PM 41.9431 -86.9553 309° West 285 328 9,600 -1,020 Descending Chicago Center
01:44PM 41.9781 -87.0414 299° West 267 307 9,000 -420 Descending Chicago Center
01:45PM 41.9833 -87.1397 274° West 267 307 8,800 -1,020 Descending Chicago Center
01:46PM 41.9839 -87.2367 270° West 264 304 7,000 -900 Descending Chicago Center
01:47PM 41.9839 -87.3308 270° West 258 297 7,000  Level Chicago Center
01:47PM 41.9833 -87.4000 269° West 217 250 7,000 -120 Level Chicago TRACON
01:48PM 41.9833 -87.4667 270° West 200 230 6,900 -600 Descending Chicago TRACON
01:49PM 41.9833 -87.5333 270° West 165 190 5,800 -960 Descending Chicago TRACON
01:50PM 41.9833 -87.6000 270° West 158 182 5,000 -900 Descending Chicago TRACON
01:51PM 41.9833 -87.6500 270° West 161 185 4,100 -900 Descending Chicago TRACON
01:52PM 41.9833 -87.7167 270° West 163 188 3,200 -900 Descending Chicago TRACON